G Force — MNHN9 — position and weather

sailwx.info

Track history (hours):
 
Tides and Currents Weather Stations Pressure Air Temp Water Temp Dewpoint Dewpoint Depression Visibility Wind Speed Wind Dir Waves Ship Positions

G Force

Last reported at 2014-Sep-19 23:31 UTC. Time now 2014-Sep-20 10:04 UTC.
Position N 41°23' E 002°11'.

Length 37 m; draft 2 m.

Type: Pleasure craft. MMSI: 235011330.

Date/timePositionNaut miles runAvg speedWind from/ knotsBaromVisibWave heightAir tempDewpointWater temp
2014-Sep-19 23:31N 41°23' E 002°11'13 0.4
2014-Sep-18 17:17N 41°10' E 002°13'1013.6
2014-Sep-18 16:33N 41°00' E 002°14'1513.6
2014-Sep-18 15:26N 40°45' E 002°15'1213.0
2014-Sep-18 14:32N 40°34' E 002°15'1513.7
2014-Sep-18 13:27N 40°19' E 002°16'1513.6
2014-Sep-18 12:20N 40°03' E 002°16'1213.9
2014-Sep-18 11:26N 39°51' E 002°17'1413.9
2014-Sep-18 10:26N 39°37' E 002°17'16 1.1
2014-Sep-17 19:16N 39°33' E 002°38'0 0.0
2014-Sep-17 15:20N 39°33' E 002°38'0 0.0
2014-Sep-17 11:13N 39°33' E 002°38'68 2.1
2014-Sep-16 02:31N 38°55' E 001°26'14 0.4
2014-Sep-14 17:20N 39°06' E 001°36'1517.4
2014-Sep-14 16:27N 39°16' E 001°52'2120.9
2014-Sep-14 15:27N 39°26' E 002°15'11 8.3
2014-Sep-14 14:07N 39°31' E 002°28'2 0.1
2014-Sep-13 19:10N 39°29' E 002°29'0 0.0
2014-Sep-13 18:12N 39°29' E 002°29'0 0.0
2014-Sep-13 04:10N 39°29' E 002°29'0 0.0
2014-Sep-13 00:17N 39°29' E 002°29'0 0.0
2014-Sep-12 23:29N 39°29' E 002°29'0 0.0
2014-Sep-12 22:23N 39°29' E 002°29'1 1.5
2014-Sep-12 21:33N 39°29' E 002°27'1212.0
2014-Sep-12 20:32N 39°41' E 002°22'1414.7
2014-Sep-12 19:33N 39°54' E 002°31'1414.1
2014-Sep-12 18:33N 40°08' E 002°33'1414.3
2014-Sep-12 17:32N 40°22' E 002°38'1514.5
2014-Sep-12 16:32N 40°36' E 002°43'1414.1
2014-Sep-12 15:33N 40°49' E 002°49'1615.2
2014-Sep-12 14:29N 41°05' E 002°55'2914.2
2014-Sep-12 12:27N 41°33' E 003°05'1314.1
2014-Sep-12 11:33N 41°44' E 003°10'1514.4
2014-Sep-12 10:29N 41°59' E 003°16'1715.1
2014-Sep-12 09:21N 42°16' E 003°20'1213.5
2014-Sep-12 08:27N 42°28' E 003°15'7 6.2
2014-Sep-12 07:18N 42°31' E 003°06'0 0.0
2014-Sep-12 06:27N 42°31' E 003°06'0 0.0
2014-Sep-11 21:16N 42°31' E 003°06'0 0.0
2014-Sep-11 19:25N 42°31' E 003°06'0 0.0
2014-Sep-11 18:33N 42°31' E 003°06'0 0.0
2014-Sep-11 17:23N 42°31' E 003°06'0 0.0
2014-Sep-11 16:33N 42°31' E 003°06'0 0.0
2014-Sep-11 12:33N 42°31' E 003°06'1 1.3
2014-Sep-11 11:28N 42°32' E 003°08'1617.5
2014-Sep-11 10:33N 42°18' E 003°21'1918.1
2014-Sep-11 09:31N 42°00' E 003°16'  
Track history (hours):
 
Tides and Currents Weather Stations Pressure Air Temp Water Temp Dewpoint Dewpoint Depression Visibility Wind Speed Wind Dir Waves Ship Positions

G Force

Last reported at 2014-Sep-19 23:31 UTC. Time now 2014-Sep-20 10:04 UTC.
Position N 41°23' E 002°11'.

Length 37 m; draft 2 m.

Type: Pleasure craft. MMSI: 235011330.

Date/timePositionNaut miles runAvg speedWind from/ knotsBaromVisibWave heightAir tempDewpointWater temp
2014-Sep-19 23:31N 41°23' E 002°11'13 0.4
2014-Sep-18 17:17N 41°10' E 002°13'1013.6
2014-Sep-18 16:33N 41°00' E 002°14'1513.6
2014-Sep-18 15:26N 40°45' E 002°15'1213.0
2014-Sep-18 14:32N 40°34' E 002°15'1513.7
2014-Sep-18 13:27N 40°19' E 002°16'1513.6
2014-Sep-18 12:20N 40°03' E 002°16'1213.9
2014-Sep-18 11:26N 39°51' E 002°17'1413.9
2014-Sep-18 10:26N 39°37' E 002°17'16 1.1
2014-Sep-17 19:16N 39°33' E 002°38'0 0.0
2014-Sep-17 15:20N 39°33' E 002°38'0 0.0
2014-Sep-17 11:13N 39°33' E 002°38'68 2.1
2014-Sep-16 02:31N 38°55' E 001°26'14 0.4
2014-Sep-14 17:20N 39°06' E 001°36'1517.4
2014-Sep-14 16:27N 39°16' E 001°52'2120.9
2014-Sep-14 15:27N 39°26' E 002°15'11 8.3
2014-Sep-14 14:07N 39°31' E 002°28'2 0.1
2014-Sep-13 19:10N 39°29' E 002°29'0 0.0
2014-Sep-13 18:12N 39°29' E 002°29'0 0.0
2014-Sep-13 04:10N 39°29' E 002°29'0 0.0
2014-Sep-13 00:17N 39°29' E 002°29'0 0.0
2014-Sep-12 23:29N 39°29' E 002°29'0 0.0
2014-Sep-12 22:23N 39°29' E 002°29'1 1.5
2014-Sep-12 21:33N 39°29' E 002°27'1212.0
2014-Sep-12 20:32N 39°41' E 002°22'1414.7
2014-Sep-12 19:33N 39°54' E 002°31'1414.1
2014-Sep-12 18:33N 40°08' E 002°33'1414.3
2014-Sep-12 17:32N 40°22' E 002°38'1514.5
2014-Sep-12 16:32N 40°36' E 002°43'1414.1
2014-Sep-12 15:33N 40°49' E 002°49'1615.2
2014-Sep-12 14:29N 41°05' E 002°55'2914.2
2014-Sep-12 12:27N 41°33' E 003°05'1314.1
2014-Sep-12 11:33N 41°44' E 003°10'1514.4
2014-Sep-12 10:29N 41°59' E 003°16'1715.1
2014-Sep-12 09:21N 42°16' E 003°20'1213.5
2014-Sep-12 08:27N 42°28' E 003°15'7 6.2
2014-Sep-12 07:18N 42°31' E 003°06'0 0.0
2014-Sep-12 06:27N 42°31' E 003°06'0 0.0
2014-Sep-11 21:16N 42°31' E 003°06'0 0.0
2014-Sep-11 19:25N 42°31' E 003°06'0 0.0
2014-Sep-11 18:33N 42°31' E 003°06'0 0.0
2014-Sep-11 17:23N 42°31' E 003°06'0 0.0
2014-Sep-11 16:33N 42°31' E 003°06'0 0.0
2014-Sep-11 12:33N 42°31' E 003°06'1 1.3
2014-Sep-11 11:28N 42°32' E 003°08'1617.5
2014-Sep-11 10:33N 42°18' E 003°21'1918.1
2014-Sep-11 09:31N 42°00' E 003°16'  

Dump ship's entire track history